Time;durP1;ratioP1;P1;durP2;ratioP2;P2;SDS_P1;SDS_P2;PMS_P1;PMS_P2;Temp;Humidity;BMP_temperature;BMP_pressure;BME280_temperature;BME280_humidity;BME280_pressure;Samples;Min_cycle;Max_cycle;Signal;HPM_P1;HPM_P2
2022/08/09 00:00:23;;;;;;;3.80;3.10;;;18.30;93.20;;;;;;4719315;28;10000872;-76
2022/08/09 00:02:49;;;;;;;6.30;3.15;;;18.30;93.60;;;;;;4715073;28;9999822;-76
2022/08/09 00:05:15;;;;;;;3.97;3.58;;;18.30;93.70;;;;;;5051798;28;20078;-76
2022/08/09 00:07:42;;;;;;;3.60;3.15;;;18.30;93.90;;;;;;5047734;28;20078;-76
2022/08/09 00:10:08;;;;;;;4.72;3.38;;;18.20;94.10;;;;;;5047404;28;21320;-76
2022/08/09 00:12:34;;;;;;;5.05;3.67;;;18.20;94.30;;;;;;5050618;28;20060;-76
2022/08/09 00:15:00;;;;;;;6.15;3.75;;;18.20;94.70;;;;;;5071294;28;20456;-76
2022/08/09 00:17:25;;;;;;;5.97;3.40;;;18.20;94.80;;;;;;5052134;28;20028;-76
2022/08/09 00:19:51;;;;;;;4.93;3.47;;;18.10;95.20;;;;;;5050521;28;20056;-76
2022/08/09 00:22:16;;;;;;;4.93;3.60;;;18.10;95.50;;;;;;5057002;28;20028;-76
2022/08/09 00:24:42;;;;;;;7.07;3.58;;;18.10;95.70;;;;;;5055663;28;20017;-76
2022/08/09 00:27:07;;;;;;;4.93;3.60;;;18.00;96.00;;;;;;5055026;28;20031;-76
2022/08/09 00:29:33;;;;;;;8.98;3.70;;;18.00;96.40;;;;;;5057481;28;20060;-75
2022/08/09 00:31:58;;;;;;;6.50;3.13;;;18.00;96.60;;;;;;5065510;28;20032;-76
2022/08/09 00:34:24;;;;;;;5.80;3.40;;;18.00;96.80;;;;;;5058513;28;20389;-76
2022/08/09 00:36:50;;;;;;;6.80;3.63;;;18.00;97.10;;;;;;5058499;28;20028;-76
2022/08/09 00:39:16;;;;;;;5.95;3.60;;;18.00;97.50;;;;;;5058860;28;20012;-76
2022/08/09 00:41:42;;;;;;;6.63;3.88;;;17.90;97.60;;;;;;5058978;28;20810;-76
2022/08/09 00:44:08;;;;;;;9.68;3.83;;;17.90;97.90;;;;;;5047117;28;20068;-76
2022/08/09 00:46:33;;;;;;;8.07;3.60;;;17.80;98.30;;;;;;5066517;28;20028;-76
2022/08/09 00:48:59;;;;;;;6.35;4.10;;;17.80;99.00;;;;;;5059638;28;20078;-76
2022/08/09 00:51:25;;;;;;;7.38;3.67;;;17.80;99.10;;;;;;5048013;28;20028;-75
2022/08/09 00:53:51;;;;;;;5.25;3.80;;;17.80;99.40;;;;;;5058629;28;20036;-75
2022/08/09 00:56:17;;;;;;;4.85;3.40;;;17.70;99.80;;;;;;5047621;28;20436;-75
2022/08/09 00:58:43;;;;;;;8.68;3.80;;;17.70;99.90;;;;;;5050124;28;20091;-76
2022/08/09 01:01:13;;;;;;;6.20;3.97;;;17.60;99.90;;;;;;5057023;28;20028;-75
2022/08/09 01:04:03;;;;;;;6.97;3.47;;;17.60;99.90;;;;;;5055868;28;20035;-76
2022/08/09 01:06:38;;;;;;;5.40;4.22;;;17.60;99.90;;;;;;5046474;28;20044;-76
2022/08/09 01:09:19;;;;;;;6.82;3.92;;;17.60;99.90;;;;;;5059114;28;20472;-76
2022/08/09 01:11:58;;;;;;;5.05;3.72;;;17.50;99.90;;;;;;5057059;28;20033;-76
2022/08/09 01:14:40;;;;;;;8.80;4.05;;;17.50;99.90;;;;;;5055559;28;20032;-76
2022/08/09 01:17:18;;;;;;;7.22;4.00;;;17.50;99.90;;;;;;5062583;28;20042;-76
2022/08/09 01:19:52;;;;;;;7.20;4.07;;;17.50;99.90;;;;;;5062379;28;20028;-76
2022/08/09 01:22:32;;;;;;;7.68;3.97;;;17.40;99.90;;;;;;5054135;28;20430;-76
2022/08/09 01:25:07;;;;;;;5.68;3.85;;;17.40;99.90;;;;;;5059990;28;20047;-75
2022/08/09 01:27:34;;;;;;;8.50;3.80;;;17.40;99.90;;;;;;5056180;28;20047;-76
2022/08/09 01:30:04;;;;;;;7.60;4.13;;;17.40;99.90;;;;;;5051884;28;20032;-76
2022/08/09 01:32:37;;;;;;;6.32;3.80;;;17.30;99.90;;;;;;5063392;28;20055;-76
2022/08/09 01:35:29;;;;;;;7.20;4.00;;;17.30;99.90;;;;;;5061384;28;20497;-75
2022/08/09 01:37:58;;;;;;;4.40;3.35;;;17.30;99.90;;;;;;5053327;28;20366;-76
2022/08/09 01:40:27;;;;;;;7.20;3.70;;;17.20;99.90;;;;;;5053799;28;20320;-76
2022/08/09 01:42:53;;;;;;;6.18;3.95;;;17.20;99.90;;;;;;5058793;28;20721;-75
2022/08/09 01:45:21;;;;;;;7.30;4.13;;;17.10;99.90;;;;;;5061442;28;20042;-75
2022/08/09 01:47:47;;;;;;;6.75;3.72;;;17.10;99.90;;;;;;5060217;28;20020;-75
2022/08/09 01:50:14;;;;;;;8.00;4.03;;;17.10;99.90;;;;;;5045355;28;20469;-75
2022/08/09 01:52:42;;;;;;;6.07;3.60;;;17.20;99.90;;;;;;5060183;28;20503;-76
2022/08/09 01:55:09;;;;;;;9.63;4.20;;;17.10;99.90;;;;;;5049709;28;20109;-76
2022/08/09 01:57:44;;;;;;;4.97;3.80;;;17.10;99.90;;;;;;5064779;28;20043;-75
2022/08/09 02:00:12;;;;;;;6.38;3.80;;;17.00;99.90;;;;;;5049644;28;20154;-76
2022/08/09 02:02:42;;;;;;;7.00;4.20;;;17.00;99.90;;;;;;5050766;28;20044;-75
2022/08/09 02:05:10;;;;;;;5.68;3.80;;;17.00;99.90;;;;;;5065100;28;20568;-75
2022/08/09 02:07:58;;;;;;;7.82;3.90;;;16.90;99.90;;;;;;5051206;28;20048;-75
2022/08/09 02:10:28;;;;;;;8.63;4.05;;;16.90;99.90;;;;;;5054171;28;20048;-75
2022/08/09 02:12:56;;;;;;;8.75;4.20;;;16.90;99.90;;;;;;5045950;28;20044;-75
2022/08/09 02:15:24;;;;;;;6.95;4.18;;;17.00;99.90;;;;;;5065113;28;20431;-75
2022/08/09 02:17:51;;;;;;;7.72;4.53;;;17.00;99.90;;;;;;5067415;28;20083;-75
2022/08/09 02:20:17;;;;;;;6.05;3.95;;;16.90;99.90;;;;;;5052429;28;20041;-75
2022/08/09 02:22:50;;;;;;;10.10;4.10;;;17.00;99.90;;;;;;5053267;28;20094;-75
2022/08/09 02:25:21;;;;;;;10.68;4.13;;;17.00;99.90;;;;;;5055015;28;20027;-75
2022/08/09 02:27:59;;;;;;;5.38;4.00;;;17.00;99.90;;;;;;5051031;28;20040;-75
2022/08/09 02:30:30;;;;;;;7.05;4.15;;;17.00;99.90;;;;;;5054904;28;20261;-75
2022/08/09 02:32:57;;;;;;;7.05;4.50;;;16.90;99.90;;;;;;5068825;28;20100;-75
2022/08/09 02:35:24;;;;;;;7.72;4.38;;;16.90;99.90;;;;;;5069737;28;20030;-76
2022/08/09 02:37:55;;;;;;;5.15;4.10;;;16.90;99.90;;;;;;5052691;28;20430;-75
2022/08/09 02:40:22;;;;;;;9.38;4.65;;;16.90;99.90;;;;;;5050885;28;20056;-76
2022/08/09 02:42:50;;;;;;;6.63;4.20;;;16.90;99.90;;;;;;5058554;28;20097;-76
2022/08/09 02:45:24;;;;;;;5.57;4.57;;;16.80;99.90;;;;;;5063690;28;20227;-75
2022/08/09 02:47:53;;;;;;;5.13;4.25;;;16.80;99.90;;;;;;5065896;28;20038;-75
2022/08/09 02:50:32;;;;;;;6.25;4.45;;;16.80;99.90;;;;;;5064504;28;20044;-75
2022/08/09 02:53:03;;;;;;;6.43;4.13;;;16.80;99.90;;;;;;5054797;28;20032;-75
2022/08/09 02:55:31;;;;;;;6.82;4.10;;;16.70;99.90;;;;;;5053828;28;20024;-75
2022/08/09 02:57:58;;;;;;;7.15;4.10;;;16.70;99.90;;;;;;5060736;28;20025;-75
2022/08/09 03:00:25;;;;;;;5.63;4.45;;;16.60;99.90;;;;;;5059512;28;20116;-75
2022/08/09 03:02:54;;;;;;;7.18;4.55;;;16.60;99.90;;;;;;5054123;28;20033;-76
2022/08/09 03:05:21;;;;;;;7.32;4.30;;;16.50;99.90;;;;;;5060071;28;20043;-75
2022/08/09 03:07:49;;;;;;;8.68;4.22;;;16.50;99.90;;;;;;5074161;28;20038;-75
2022/08/09 03:10:15;;;;;;;7.78;4.20;;;16.50;99.90;;;;;;5056381;28;20040;-75
2022/08/09 03:12:43;;;;;;;11.90;4.43;;;16.50;99.90;;;;;;5060192;28;20115;-76
2022/08/09 03:15:11;;;;;;;7.15;4.43;;;16.50;99.90;;;;;;5049444;28;20476;-75
2022/08/09 03:17:37;;;;;;;6.00;4.28;;;16.50;99.90;;;;;;5049866;28;20114;-75
2022/08/09 03:20:05;;;;;;;6.72;4.13;;;16.50;99.90;;;;;;5049250;28;20111;-75
2022/08/09 03:22:35;;;;;;;7.75;4.13;;;16.50;99.90;;;;;;5045252;28;20033;-75
2022/08/09 03:25:01;;;;;;;6.88;4.43;;;16.50;99.90;;;;;;5046502;28;20385;-75
2022/08/09 03:27:27;;;;;;;8.07;4.15;;;16.50;99.90;;;;;;5048947;28;20028;-75
2022/08/09 03:29:55;;;;;;;7.30;4.57;;;16.50;99.90;;;;;;5054056;28;20116;-75
2022/08/09 03:32:22;;;;;;;7.22;4.10;;;16.40;99.90;;;;;;5043967;28;20059;-75
2022/08/09 03:34:47;;;;;;;8.85;4.28;;;16.40;99.90;;;;;;5046026;28;20056;-75
2022/08/09 03:37:13;;;;;;;6.00;4.07;;;16.40;99.90;;;;;;5055984;28;20055;-75
2022/08/09 03:39:39;;;;;;;5.50;4.40;;;16.40;99.90;;;;;;5051798;28;20040;-75
2022/08/09 03:42:05;;;;;;;5.65;4.20;;;16.30;99.90;;;;;;5042934;28;20032;-75
2022/08/09 03:44:30;;;;;;;6.43;4.40;;;16.30;99.90;;;;;;5048351;28;20024;-75
2022/08/09 03:46:56;;;;;;;7.70;4.15;;;16.30;99.90;;;;;;5048626;28;20032;-75
2022/08/09 03:49:24;;;;;;;5.38;4.13;;;16.30;99.90;;;;;;5047687;28;20036;-75
2022/08/09 03:51:56;;;;;;;6.93;4.30;;;16.30;99.90;;;;;;5058916;28;20032;-75
2022/08/09 03:54:25;;;;;;;5.57;4.43;;;16.30;99.90;;;;;;5047108;28;20040;-75
2022/08/09 03:56:51;;;;;;;10.38;4.35;;;16.30;99.90;;;;;;5049812;28;20032;-75
2022/08/09 03:59:17;;;;;;;6.35;4.30;;;16.20;99.90;;;;;;5047249;28;20062;-75
2022/08/09 04:01:44;;;;;;;6.40;4.15;;;16.20;99.90;;;;;;5046282;28;20507;-76
2022/08/09 04:04:11;;;;;;;8.73;4.50;;;16.20;99.90;;;;;;5047724;28;20602;-75
2022/08/09 04:06:38;;;;;;;8.52;4.50;;;16.20;99.90;;;;;;5048590;28;20020;-76
2022/08/09 04:09:05;;;;;;;6.88;4.13;;;16.20;99.90;;;;;;5046985;28;20037;-75
2022/08/09 04:11:53;;;;;;;6.43;3.92;;;16.20;99.90;;;;;;5038700;28;20492;-76
2022/08/09 04:14:20;;;;;;;8.48;4.10;;;16.20;99.90;;;;;;5044125;28;20036;-76
2022/08/09 04:16:46;;;;;;;6.10;4.28;;;16.20;99.90;;;;;;5043843;28;20033;-76
2022/08/09 04:19:12;;;;;;;6.53;4.80;;;16.20;99.90;;;;;;5053021;28;20082;-75
2022/08/09 04:21:39;;;;;;;6.70;3.85;;;16.20;99.90;;;;;;5046998;28;20021;-75
2022/08/09 04:24:05;;;;;;;9.50;4.28;;;16.10;99.90;;;;;;5051618;28;20032;-75
2022/08/09 04:26:31;;;;;;;5.30;4.38;;;16.20;99.90;;;;;;5058045;28;20032;-75
2022/08/09 04:28:56;;;;;;;10.52;4.60;;;16.20;99.90;;;;;;5065368;28;20039;-76
2022/08/09 04:31:22;;;;;;;6.57;3.97;;;16.20;99.90;;;;;;5057883;28;20024;-75
2022/08/09 04:33:48;;;;;;;6.95;4.80;;;16.10;99.90;;;;;;5052864;28;20033;-75
2022/08/09 04:36:13;;;;;;;6.70;4.47;;;16.10;99.90;;;;;;5061677;28;20035;-75
2022/08/09 04:38:39;;;;;;;6.25;4.25;;;16.20;99.90;;;;;;5053250;28;20052;-75
2022/08/09 04:41:04;;;;;;;5.13;4.28;;;16.10;99.90;;;;;;5051626;28;20048;-75
2022/08/09 04:43:30;;;;;;;6.53;4.25;;;16.10;99.90;;;;;;5049501;28;20032;-75
2022/08/09 04:45:55;;;;;;;10.35;4.88;;;16.10;99.90;;;;;;5058066;28;20107;-75
2022/08/09 04:48:21;;;;;;;10.25;4.60;;;16.10;99.90;;;;;;5051821;28;20047;-75
2022/08/09 04:50:47;;;;;;;5.68;4.05;;;16.10;99.90;;;;;;5051046;28;20111;-75
2022/08/09 04:53:13;;;;;;;4.60;3.92;;;16.00;99.90;;;;;;5064768;28;20162;-75
2022/08/09 04:55:39;;;;;;;6.90;4.30;;;16.00;99.90;;;;;;5032756;28;20021;-75
2022/08/09 04:58:05;;;;;;;7.38;4.20;;;16.00;99.90;;;;;;5058552;28;20574;-75
2022/08/09 05:00:33;;;;;;;8.40;4.35;;;16.10;99.90;;;;;;5043890;28;20028;-75
2022/08/09 05:03:03;;;;;;;8.10;4.45;;;16.10;99.90;;;;;;5048084;28;20040;-75
2022/08/09 05:05:29;;;;;;;6.43;4.53;;;16.10;99.90;;;;;;4704710;28;10000466;-75
2022/08/09 05:07:55;;;;;;;6.10;4.65;;;16.20;99.90;;;;;;5063893;28;20048;-75
2022/08/09 05:10:21;;;;;;;9.27;4.90;;;16.20;99.90;;;;;;5050057;28;20085;-74
2022/08/09 05:12:47;;;;;;;7.72;4.60;;;16.20;99.90;;;;;;5061584;28;20025;-75
2022/08/09 05:15:13;;;;;;;6.97;4.80;;;16.20;99.90;;;;;;5060369;28;20477;-75
2022/08/09 05:17:39;;;;;;;13.15;4.60;;;16.20;99.90;;;;;;5049027;28;20036;-75
2022/08/09 05:20:05;;;;;;;6.10;4.68;;;16.30;99.90;;;;;;5061471;28;20399;-76
2022/08/09 05:22:31;;;;;;;4.97;4.47;;;16.30;99.90;;;;;;5054217;28;20040;-75
2022/08/09 05:24:56;;;;;;;7.57;4.32;;;16.30;99.90;;;;;;5055901;28;20017;-75
2022/08/09 05:27:22;;;;;;;7.07;4.15;;;16.30;99.90;;;;;;5057295;28;20090;-75
2022/08/09 05:29:48;;;;;;;9.55;4.53;;;16.30;99.90;;;;;;5050975;28;20620;-76
2022/08/09 05:32:13;;;;;;;6.53;4.32;;;16.30;99.90;;;;;;5059198;28;20025;-75
2022/08/09 05:34:39;;;;;;;7.43;4.35;;;16.30;99.90;;;;;;5064042;28;20033;-75
2022/08/09 05:37:05;;;;;;;5.43;4.07;;;16.30;99.90;;;;;;5060845;28;20048;-75
2022/08/09 05:39:32;;;;;;;8.48;4.40;;;16.40;99.90;;;;;;5060368;28;20048;-75
2022/08/09 05:41:58;;;;;;;8.05;4.70;;;16.40;99.90;;;;;;5050970;28;20685;-75
2022/08/09 05:44:26;;;;;;;5.85;4.30;;;16.40;99.90;;;;;;5054342;28;20060;-75
2022/08/09 05:46:52;;;;;;;5.50;4.28;;;16.40;99.90;;;;;;5050775;28;20535;-75
2022/08/09 05:49:17;;;;;;;6.00;4.55;;;16.50;99.90;;;;;;5058741;28;20028;-80
2022/08/09 05:51:43;;;;;;;8.63;4.50;;;16.50;99.90;;;;;;5046008;28;20054;-79
2022/08/09 05:54:09;;;;;;;9.30;5.07;;;16.50;99.90;;;;;;5044260;28;20508;-79
2022/08/09 05:56:34;;;;;;;6.60;4.63;;;16.60;99.90;;;;;;5065763;28;20426;-79
2022/08/09 05:59:00;;;;;;;4.90;4.30;;;16.60;99.90;;;;;;5049924;28;20118;-79
2022/08/09 06:01:27;;;;;;;8.32;4.50;;;16.70;99.90;;;;;;5059483;28;20037;-79
2022/08/09 06:03:53;;;;;;;8.18;4.13;;;16.70;99.90;;;;;;5058585;28;20032;-79
2022/08/09 06:06:19;;;;;;;8.13;4.30;;;16.80;99.90;;;;;;5065261;28;20057;-79
2022/08/09 06:08:44;;;;;;;9.32;4.40;;;16.80;99.90;;;;;;5069256;28;20033;-79
2022/08/09 06:11:10;;;;;;;6.80;4.10;;;16.90;99.90;;;;;;5070182;28;20021;-79
2022/08/09 06:13:37;;;;;;;7.53;4.30;;;17.00;99.90;;;;;;5073361;28;20526;-79
2022/08/09 06:16:03;;;;;;;7.45;4.38;;;17.10;99.90;;;;;;5065381;28;20040;-79
2022/08/09 06:18:29;;;;;;;6.72;4.32;;;17.10;99.90;;;;;;5080392;28;20475;-79
2022/08/09 06:20:55;;;;;;;6.60;4.47;;;17.20;99.90;;;;;;5073013;28;20028;-75
2022/08/09 06:23:22;;;;;;;8.43;4.15;;;17.20;99.90;;;;;;5065173;28;20064;-76
2022/08/09 06:25:48;;;;;;;8.85;4.20;;;17.30;99.90;;;;;;5063231;28;20048;-76
2022/08/09 06:28:14;;;;;;;10.30;4.28;;;17.30;99.90;;;;;;5077866;28;20028;-76
2022/08/09 06:30:41;;;;;;;9.73;4.20;;;17.40;99.90;;;;;;5071530;28;20032;-77
2022/08/09 06:33:07;;;;;;;7.18;4.03;;;17.50;99.90;;;;;;5076093;28;20523;-77
2022/08/09 06:35:33;;;;;;;6.50;4.13;;;17.50;99.90;;;;;;5077658;28;20094;-78
2022/08/09 06:37:59;;;;;;;9.38;4.40;;;17.60;99.90;;;;;;5052308;28;20478;-79
2022/08/09 06:40:25;;;;;;;5.55;3.92;;;17.70;99.90;;;;;;5065058;28;20476;-79
2022/08/09 06:42:51;;;;;;;4.85;3.67;;;17.80;99.90;;;;;;5062577;28;20123;-77
2022/08/09 06:45:17;;;;;;;7.95;4.78;;;17.90;99.90;;;;;;5080992;28;20050;-75
2022/08/09 06:47:42;;;;;;;7.47;3.78;;;18.00;99.90;;;;;;5080920;28;20024;-77
2022/08/09 06:50:09;;;;;;;7.28;3.75;;;18.20;99.90;;;;;;5074382;28;20036;-77
2022/08/09 06:52:34;;;;;;;7.80;4.18;;;18.40;99.90;;;;;;5070403;28;20511;-75
2022/08/09 06:55:00;;;;;;;6.32;3.50;;;18.60;99.90;;;;;;5075282;28;20318;-76
2022/08/09 06:57:26;;;;;;;6.32;3.83;;;18.70;99.90;;;;;;5059331;28;20381;-77
2022/08/09 06:59:54;;;;;;;8.10;3.30;;;20.20;99.90;;;;;;5049562;28;20033;-76
2022/08/09 07:02:19;;;;;;;8.25;3.50;;;19.30;99.90;;;;;;5056704;28;20016;-76
2022/08/09 07:04:45;;;;;;;8.18;3.42;;;19.60;99.90;;;;;;5069646;28;20361;-76
2022/08/09 07:07:10;;;;;;;7.07;3.22;;;19.70;99.90;;;;;;5087232;28;20487;-76
2022/08/09 07:09:36;;;;;;;6.90;3.22;;;19.90;99.90;;;;;;5054509;28;20083;-77
2022/08/09 07:12:02;;;;;;;5.68;3.30;;;20.20;99.90;;;;;;5073423;28;20025;-77
2022/08/09 07:14:28;;;;;;;5.35;3.20;;;20.30;99.90;;;;;;5070079;28;20134;-78
2022/08/09 07:16:53;;;;;;;7.28;3.60;;;20.40;99.90;;;;;;5065529;28;20433;-77
2022/08/09 07:19:19;;;;;;;6.07;3.20;;;20.50;99.90;;;;;;5075194;28;20032;-78
2022/08/09 07:21:45;;;;;;;7.47;3.38;;;20.60;99.90;;;;;;5047115;28;20094;-78
2022/08/09 07:24:11;;;;;;;9.55;3.50;;;20.60;99.90;;;;;;5047298;28;20033;-78
2022/08/09 07:26:36;;;;;;;4.55;3.10;;;20.70;99.90;;;;;;5050591;28;20028;-78
2022/08/09 07:29:04;;;;;;;5.93;3.50;;;20.80;99.90;;;;;;5050076;28;20025;-77
2022/08/09 07:31:29;;;;;;;4.45;3.33;;;20.90;99.60;;;;;;5048634;28;20415;-79
2022/08/09 07:33:55;;;;;;;4.82;2.83;;;21.00;99.50;;;;;;5067703;28;20035;-80
2022/08/09 07:36:21;;;;;;;4.95;3.35;;;21.10;98.90;;;;;;5060074;28;20032;-79
2022/08/09 07:38:47;;;;;;;6.70;3.40;;;21.30;99.00;;;;;;5076805;28;20032;-79
2022/08/09 07:41:12;;;;;;;8.27;3.50;;;21.40;98.20;;;;;;5076548;28;20340;-80
2022/08/09 07:43:38;;;;;;;5.03;3.25;;;21.40;98.00;;;;;;5059005;28;20291;-81
2022/08/09 07:46:04;;;;;;;4.70;3.15;;;21.60;97.50;;;;;;5073379;28;20028;-81
2022/08/09 07:48:30;;;;;;;7.28;3.17;;;;;;;;;;5053859;28;20036;-76
2022/08/09 07:50:57;;;;;;;5.47;3.10;;;21.90;96.90;;;;;;5063305;28;20029;-78
2022/08/09 07:53:23;;;;;;;5.45;2.97;;;22.00;96.50;;;;;;5062889;28;20043;-77
2022/08/09 07:55:48;;;;;;;8.48;3.30;;;22.10;95.50;;;;;;5055571;28;20033;-73
2022/08/09 07:58:14;;;;;;;8.13;2.80;;;22.10;95.80;;;;;;5061386;28;20397;-76
2022/08/09 08:00:41;;;;;;;4.65;2.83;;;22.20;95.50;;;;;;5067065;28;20032;-76
2022/08/09 08:03:07;;;;;;;5.18;2.80;;;22.40;95.30;;;;;;5059410;28;20796;-76
2022/08/09 08:05:33;;;;;;;6.65;2.83;;;22.40;94.90;;;;;;5055037;28;20036;-83
2022/08/09 08:07:58;;;;;;;11.10;2.95;;;22.50;94.70;;;;;;5065822;28;20040;-82
2022/08/09 08:10:24;;;;;;;8.07;3.00;;;22.70;94.60;;;;;;5061822;28;20020;-82
2022/08/09 08:12:50;;;;;;;4.60;3.10;;;22.80;93.90;;;;;;5052672;28;20643;-83
2022/08/09 08:15:18;;;;;;;5.50;3.10;;;22.80;93.40;;;;;;5059096;28;20024;-82
2022/08/09 08:17:50;;;;;;;3.33;2.60;;;22.90;93.00;;;;;;5049653;28;20036;-83
2022/08/09 08:20:17;;;;;;;6.43;2.97;;;23.00;93.10;;;;;;5056579;28;20099;-83
2022/08/09 08:22:43;;;;;;;9.00;2.92;;;23.10;92.90;;;;;;5062828;28;20386;-83
2022/08/09 08:25:09;;;;;;;5.60;2.80;;;23.20;92.10;;;;;;5068173;28;20031;-83
2022/08/09 10:23:45;;;;;;;6.93;2.45;;;26.00;68.70;;;;;;5129478;23;10001641;-73
2022/08/09 10:26:12;;;;;;;5.53;2.80;;;26.00;69.60;;;;;;4912609;29;20511;-72
2022/08/09 10:28:40;;;;;;;5.07;2.50;;;26.10;70.00;;;;;;4926347;29;20031;-72
2022/08/09 10:31:11;;;;;;;7.35;2.63;;;26.10;69.60;;;;;;4918794;29;20380;-73
2022/08/09 10:33:37;;;;;;;4.28;2.33;;;26.10;68.20;;;;;;4924211;29;20346;-73
2022/08/09 10:36:05;;;;;;;4.53;2.20;;;26.10;67.80;;;;;;4923349;29;20464;-72
2022/08/09 10:38:31;;;;;;;5.50;2.40;;;26.20;67.60;;;;;;4922898;29;20060;-72
2022/08/09 10:40:57;;;;;;;5.70;2.42;;;26.20;68.10;;;;;;4926235;29;20122;-72
2022/08/09 10:43:23;;;;;;;3.45;2.40;;;26.30;66.80;;;;;;4923863;29;20031;-72
2022/08/09 10:45:49;;;;;;;6.85;2.17;;;26.50;67.10;;;;;;4926073;29;20024;-72
2022/08/09 10:48:27;;;;;;;5.13;2.30;;;26.70;65.40;;;;;;4925499;29;20043;-72
2022/08/09 10:51:16;;;;;;;3.83;2.15;;;26.70;65.60;;;;;;4922238;29;20095;-72
2022/08/09 10:53:53;;;;;;;4.07;1.98;;;26.90;63.90;;;;;;4926469;29;20134;-72
2022/08/09 10:56:24;;;;;;;2.22;2.00;;;27.00;62.10;;;;;;4921486;29;20040;-72
2022/08/09 10:58:51;;;;;;;4.78;2.15;;;27.00;61.50;;;;;;4927344;29;20160;-72
2022/08/09 11:01:32;;;;;;;5.30;2.03;;;27.00;61.40;;;;;;4919204;29;20273;-72
2022/08/09 11:04:19;;;;;;;5.03;2.05;;;27.10;61.70;;;;;;4921535;29;20035;-72
2022/08/09 11:07:08;;;;;;;5.20;2.40;;;27.10;58.20;;;;;;4921810;29;20032;-71
2022/08/09 11:09:37;;;;;;;9.00;2.22;;;26.90;60.00;;;;;;4922290;29;20035;-72
2022/08/09 11:12:11;;;;;;;4.88;1.90;;;26.80;58.70;;;;;;4921182;29;20027;-72
2022/08/09 11:14:43;;;;;;;2.03;1.80;;;26.70;59.50;;;;;;4923169;29;20051;-72
2022/08/09 11:17:12;;;;;;;3.58;2.20;;;26.80;60.40;;;;;;4921554;29;20593;-72
2022/08/09 11:20:09;;;;;;;3.33;1.92;;;26.90;59.00;;;;;;4922150;29;20186;-73
2022/08/09 11:22:43;;;;;;;3.83;2.00;;;27.10;58.40;;;;;;4908022;29;20492;-72
2022/08/09 11:25:16;;;;;;;5.18;1.88;;;27.20;58.60;;;;;;4907435;29;20047;-72
2022/08/09 11:27:45;;;;;;;;;;;27.30;58.40;;;;;;4907802;29;20444;-72
2022/08/09 11:30:12;;;;;;;2.20;2.00;;;27.20;58.60;;;;;;4903885;29;20155;-72
2022/08/09 11:32:46;;;;;;;2.30;2.00;;;27.20;57.50;;;;;;4903208;29;20020;-72
2022/08/09 11:35:27;;;;;;;3.30;2.20;;;27.30;57.40;;;;;;4902732;29;20386;-72
2022/08/09 11:37:57;;;;;;;5.50;1.85;;;27.50;57.60;;;;;;4900341;29;20617;-72
2022/08/09 11:40:23;;;;;;;3.80;2.00;;;27.70;55.90;;;;;;4899074;29;20111;-72
2022/08/09 11:42:50;;;;;;;3.92;1.90;;;27.70;57.10;;;;;;4905609;29;20095;-72
2022/08/09 11:45:24;;;;;;;5.03;2.00;;;27.90;56.10;;;;;;4896707;29;20028;-72
2022/08/09 11:48:13;;;;;;;5.47;2.10;;;28.00;56.60;;;;;;4900701;29;20042;-72
2022/08/09 11:50:57;;;;;;;2.42;1.90;;;27.90;55.80;;;;;;4902090;29;20504;-72
2022/08/09 11:53:23;;;;;;;5.65;2.08;;;28.00;55.20;;;;;;4911021;29;20114;-72
2022/08/09 11:55:54;;;;;;;5.35;2.10;;;27.90;56.30;;;;;;4910490;29;20036;-72
2022/08/09 11:58:19;;;;;;;4.93;2.25;;;27.90;56.00;;;;;;4899337;29;20305;-72
2022/08/09 12:00:50;;;;;;;4.88;2.20;;;27.80;56.00;;;;;;4902326;29;20534;-72
2022/08/09 12:03:20;;;;;;;4.10;1.95;;;27.90;55.80;;;;;;4907475;29;20132;-72
2022/08/09 12:05:47;;;;;;;3.72;1.75;;;28.20;55.00;;;;;;4906799;29;20028;-72
2022/08/09 12:08:14;;;;;;;2.53;2.00;;;28.30;54.60;;;;;;4907013;29;20039;-72
2022/08/09 12:10:54;;;;;;;2.28;1.92;;;28.40;54.90;;;;;;4902483;29;20119;-72
2022/08/09 12:13:32;;;;;;;6.10;2.20;;;28.10;54.40;;;;;;4905967;29;20131;-72
2022/08/09 12:16:11;;;;;;;7.00;2.15;;;28.00;54.70;;;;;;4904641;29;20040;-72
2022/08/09 12:18:38;;;;;;;4.03;1.90;;;28.00;54.70;;;;;;4900361;29;20032;-72
2022/08/09 12:21:07;;;;;;;3.97;1.88;;;28.10;54.20;;;;;;4891979;29;20036;-72
2022/08/09 12:23:40;;;;;;;5.60;2.00;;;28.20;53.50;;;;;;4888805;29;20075;-72
2022/08/09 12:26:05;;;;;;;3.45;1.80;;;28.30;53.50;;;;;;4900765;29;20052;-72
2022/08/09 12:28:32;;;;;;;2.13;1.92;;;28.50;53.30;;;;;;4902385;29;20063;-72
2022/08/09 12:30:57;;;;;;;6.20;1.88;;;28.70;52.10;;;;;;4907403;29;20449;-71
2022/08/09 12:33:23;;;;;;;3.55;1.70;;;28.80;52.60;;;;;;4899989;29;20119;-71
2022/08/09 12:36:04;;;;;;;4.57;1.80;;;28.80;52.90;;;;;;4905471;29;20396;-71
2022/08/09 12:38:30;;;;;;;3.75;1.70;;;28.60;52.50;;;;;;4905811;29;20055;-71
2022/08/09 12:40:58;;;;;;;5.30;1.80;;;28.50;52.40;;;;;;4908313;29;20024;-70
2022/08/09 12:43:26;;;;;;;2.97;1.73;;;28.00;52.50;;;;;;4910256;29;20039;-72
2022/08/09 12:45:53;;;;;;;3.15;2.15;;;28.00;53.10;;;;;;4901785;29;20119;-71
2022/08/09 12:48:20;;;;;;;5.05;1.70;;;27.50;53.40;;;;;;4904001;29;20036;-71
2022/08/09 12:50:46;;;;;;;4.70;1.85;;;27.30;53.90;;;;;;4907784;29;20036;-71
2022/08/09 12:53:24;;;;;;;3.88;1.92;;;27.20;54.60;;;;;;4910398;29;20388;-71
2022/08/09 12:55:49;;;;;;;4.60;1.80;;;27.20;54.40;;;;;;4908816;29;20563;-71
2022/08/09 12:58:15;;;;;;;5.28;1.95;;;27.40;54.50;;;;;;4909036;29;20040;-71
2022/08/09 13:00:42;;;;;;;6.20;2.00;;;27.80;54.50;;;;;;4908372;29;20123;-71
2022/08/09 13:03:08;;;;;;;3.72;1.85;;;28.00;53.90;;;;;;4907328;29;20036;-72
2022/08/09 13:05:44;;;;;;;5.90;1.90;;;28.20;53.00;;;;;;4908385;29;20036;-71
2022/08/09 13:08:19;;;;;;;6.40;1.95;;;28.10;53.30;;;;;;4910048;29;20270;-71
2022/08/09 13:10:55;;;;;;;6.07;1.67;;;27.60;53.00;;;;;;4904629;29;20035;-71
2022/08/09 13:13:39;;;;;;;3.28;1.98;;;27.30;53.00;;;;;;4893892;29;20392;-71
2022/08/09 13:16:08;;;;;;;2.22;1.90;;;27.00;54.30;;;;;;4897412;29;20472;-71
2022/08/09 13:19:00;;;;;;;2.58;1.73;;;27.00;54.60;;;;;;4905520;29;20028;-71
2022/08/09 13:21:28;;;;;;;1.77;1.65;;;27.30;54.70;;;;;;4886806;29;20049;-71
2022/08/09 13:24:09;;;;;;;2.25;1.90;;;27.70;54.20;;;;;;4908096;29;20130;-71
2022/08/09 13:26:40;;;;;;;5.03;2.28;;;28.10;51.70;;;;;;4907651;29;20127;-71
2022/08/09 13:29:12;;;;;;;4.10;2.03;;;28.40;51.90;;;;;;4898121;29;20029;-71
2022/08/09 13:32:06;;;;;;;4.95;2.17;;;28.70;51.90;;;;;;4892100;29;20083;-70
2022/08/09 13:34:35;;;;;;;10.18;2.40;;;28.90;51.30;;;;;;4213778;29;10001502;-70
2022/08/09 13:37:03;;;;;;;4.90;1.90;;;29.10;51.90;;;;;;4899461;29;20045;-70
2022/08/09 13:39:30;;;;;;;3.38;1.70;;;29.00;51.20;;;;;;4898098;29;20044;-70
2022/08/09 13:42:10;;;;;;;3.10;1.73;;;28.90;51.40;;;;;;4897173;29;20326;-71
2022/08/09 13:44:36;;;;;;;2.40;1.80;;;28.90;50.50;;;;;;4893498;29;20524;-70
2022/08/09 13:47:04;;;;;;;4.65;1.80;;;28.90;51.20;;;;;;4897879;29;20122;-71
2022/08/09 13:49:29;;;;;;;3.65;1.50;;;28.90;50.50;;;;;;4893163;29;20064;-71
2022/08/09 13:51:55;;;;;;;9.55;2.00;;;28.90;50.20;;;;;;4890682;29;20115;-71
2022/08/09 13:54:20;;;;;;;1.85;1.75;;;29.00;50.20;;;;;;4897638;29;20036;-71
2022/08/09 13:56:46;;;;;;;3.50;1.77;;;29.10;50.00;;;;;;4891912;29;20042;-71
2022/08/09 13:59:11;;;;;;;3.67;1.63;;;29.30;49.50;;;;;;4898831;29;20225;-72
2022/08/09 14:01:37;;;;;;;4.80;1.90;;;29.30;49.10;;;;;;4899054;29;20535;-71
2022/08/09 14:04:03;;;;;;;4.70;1.60;;;29.40;48.50;;;;;;4893735;29;20067;-70
2022/08/09 14:06:29;;;;;;;2.83;1.80;;;29.40;49.30;;;;;;4900299;29;20036;-71
2022/08/09 14:08:54;;;;;;;3.95;1.50;;;29.20;49.40;;;;;;4901563;29;20480;-71
2022/08/09 14:11:20;;;;;;;2.60;1.45;;;28.90;49.00;;;;;;4899253;29;20035;-71
2022/08/09 14:13:45;;;;;;;7.18;1.80;;;28.90;48.80;;;;;;4889324;29;20235;-70
2022/08/09 14:16:15;;;;;;;5.70;1.80;;;29.10;49.00;;;;;;4898674;29;20039;-71
2022/08/09 14:18:43;;;;;;;6.13;1.83;;;29.20;49.50;;;;;;4890368;29;20047;-71
2022/08/09 14:21:09;;;;;;;6.22;1.88;;;28.90;49.60;;;;;;4898518;29;20021;-71
2022/08/09 14:23:35;;;;;;;4.88;1.90;;;28.70;49.60;;;;;;4900026;29;20258;-71
2022/08/09 14:26:01;;;;;;;3.63;1.60;;;28.60;50.40;;;;;;4905496;29;20020;-71
2022/08/09 14:28:26;;;;;;;2.75;1.98;;;28.60;48.70;;;;;;4904856;29;20115;-71
2022/08/09 14:30:52;;;;;;;4.95;1.70;;;28.80;49.20;;;;;;4902801;29;20032;-71
2022/08/09 14:33:18;;;;;;;3.70;1.58;;;29.00;50.00;;;;;;4908809;29;20255;-71
2022/08/09 14:35:44;;;;;;;3.78;1.83;;;28.90;50.00;;;;;;4905802;29;20536;-71
2022/08/09 14:38:09;;;;;;;5.40;1.90;;;28.80;50.00;;;;;;4902767;29;20242;-71
2022/08/09 14:40:35;;;;;;;5.68;1.98;;;28.50;49.80;;;;;;4902782;29;20039;-71
2022/08/09 14:43:00;;;;;;;2.92;1.90;;;28.60;50.00;;;;;;4903309;29;20044;-71
2022/08/09 14:45:26;;;;;;;7.28;1.70;;;28.60;49.80;;;;;;4907721;29;20114;-70
2022/08/09 14:47:52;;;;;;;4.50;1.98;;;28.50;49.90;;;;;;4907358;29;20743;-71